Time,TemperatureF,DewpointF,PressureIn,WindDirection,WindDirectionDegrees,WindSpeedMPH,WindSpeedGustMPH,Humidity,HourlyPrecipIn,Conditions,Clouds,dailyrainin,SoftwareType,DateUTC
2013-11-02 10:54:00,51.0,33.0,-100.00,South,189,19.0,23.0,49,0.00,,,0.00,,2013-11-02 16:54:00,
2013-11-02 11:03:00,51.0,33.0,-100.00,South,189,19.0,23.0,49,0.00,,,0.00,,2013-11-02 17:03:00,
2013-11-02 11:22:00,53.0,33.0,-100.00,South,191,21.0,25.0,46,0.00,,,0.00,,2013-11-02 17:22:00,
2013-11-02 11:33:00,53.0,33.0,-100.00,South,191,21.0,25.0,46,0.00,,,0.00,,2013-11-02 17:33:00,
2013-11-02 11:53:00,54.0,33.0,-100.00,South,189,15.0,20.0,44,0.00,,,0.00,,2013-11-02 17:53:00,
2013-11-02 12:02:00,54.0,33.0,-100.00,South,189,15.0,20.0,44,0.00,,,0.00,,2013-11-02 18:02:00,
2013-11-02 12:21:00,56.0,33.0,-100.00,SSW,198,17.0,21.0,42,0.00,,,0.00,,2013-11-02 18:21:00,
2013-11-02 12:32:00,56.0,33.0,-100.00,SSW,198,17.0,21.0,42,0.00,,,0.00,,2013-11-02 18:32:00,
2013-11-02 12:52:00,57.0,32.0,-100.00,South,188,17.0,23.0,39,0.00,,,0.00,,2013-11-02 18:52:00,
2013-11-02 13:01:00,57.0,32.0,-100.00,South,188,17.0,23.0,39,0.00,,,0.00,,2013-11-02 19:01:00,
2013-11-02 13:21:00,58.0,31.0,-100.00,South,186,19.0,24.0,36,0.00,,,0.00,,2013-11-02 19:21:00,
2013-11-02 13:32:00,58.0,31.0,-100.00,South,186,19.0,24.0,36,0.00,,,0.00,,2013-11-02 19:32:00,
2013-11-02 13:52:00,59.0,32.0,-100.00,South,189,20.0,27.0,35,0.00,,,0.00,,2013-11-02 19:52:00,
2013-11-02 14:02:00,59.0,32.0,-100.00,South,189,20.0,27.0,35,0.00,,,0.00,,2013-11-02 20:02:00,
2013-11-02 14:21:00,60.0,32.0,-100.00,South,186,19.0,24.0,34,0.00,,,0.00,,2013-11-02 20:21:00,
2013-11-02 14:32:00,60.0,32.0,-100.00,South,186,19.0,24.0,34,0.00,,,0.00,,2013-11-02 20:32:00,
2013-11-02 14:53:00,61.0,31.0,-100.00,South,189,18.0,22.0,32,0.00,,,0.00,,2013-11-02 20:53:00,
2013-11-02 15:02:00,61.0,31.0,-100.00,South,189,18.0,22.0,32,0.00,,,0.00,,2013-11-02 21:02:00,
2013-11-02 15:21:00,61.0,30.0,-100.00,SSW,205,12.0,20.0,31,0.00,,,0.00,,2013-11-02 21:21:00,
2013-11-02 15:33:00,61.0,30.0,-100.00,SSW,205,12.0,20.0,31,0.00,,,0.00,,2013-11-02 21:33:00,
2013-11-02 15:54:00,60.0,29.0,-100.00,South,191,16.0,18.0,30,0.00,,,0.00,,2013-11-02 21:54:00,
2013-11-02 16:03:00,60.0,29.0,-100.00,South,191,16.0,18.0,30,0.00,,,0.00,,2013-11-02 22:03:00,
2013-11-02 16:24:00,61.0,28.0,-100.00,SSW,206,12.0,17.0,28,0.00,,,0.00,,2013-11-02 22:24:00,
2013-11-02 16:34:00,61.0,28.0,-100.00,SSW,206,12.0,17.0,28,0.00,,,0.00,,2013-11-02 22:34:00,
2013-11-02 16:54:00,60.0,28.0,-100.00,SSW,193,16.0,22.0,29,0.00,,,0.00,,2013-11-02 22:54:00,
2013-11-02 17:02:00,60.0,28.0,-100.00,SSW,193,16.0,22.0,29,0.00,,,0.00,,2013-11-02 23:02:00,
2013-11-02 17:22:00,60.0,25.0,-100.00,SSW,203,16.0,21.0,27,0.00,,,0.00,,2013-11-02 23:22:00,
2013-11-02 17:33:00,60.0,25.0,-100.00,SSW,203,16.0,21.0,27,0.00,,,0.00,,2013-11-02 23:33:00,
2013-11-02 17:52:00,58.0,27.0,-100.00,SSW,196,15.0,25.0,31,0.00,,,0.00,,2013-11-02 23:52:00,
2013-11-02 18:01:00,58.0,27.0,-100.00,SSW,196,15.0,25.0,31,0.00,,,0.00,,2013-11-03 00:01:00,
2013-11-02 18:21:00,58.0,28.0,-100.00,South,186,14.0,17.0,32,0.00,,,0.00,,2013-11-03 00:21:00,
2013-11-02 18:33:00,58.0,28.0,-100.00,South,186,14.0,17.0,32,0.00,,,0.00,,2013-11-03 00:33:00,
2013-11-02 18:52:00,56.0,27.0,-100.00,South,188,15.0,19.0,33,0.00,,,0.00,,2013-11-03 00:52:00,
2013-11-02 19:02:00,56.0,27.0,-100.00,South,188,15.0,19.0,33,0.00,,,0.00,,2013-11-03 01:02:00,
2013-11-02 19:21:00,55.0,26.0,-100.00,South,182,13.0,17.0,33,0.00,,,0.00,,2013-11-03 01:21:00,
2013-11-02 19:32:00,55.0,26.0,-100.00,South,182,13.0,17.0,33,0.00,,,0.00,,2013-11-03 01:32:00,
2013-11-02 19:52:00,54.0,27.0,-100.00,SSW,195,10.0,15.0,34,0.00,,,0.00,,2013-11-03 01:52:00,
2013-11-02 20:02:00,54.0,27.0,-100.00,SSW,195,10.0,15.0,34,0.00,,,0.00,,2013-11-03 02:02:00,
2013-11-02 20:21:00,54.0,26.0,-100.00,South,188,8.0,10.0,34,0.00,,,0.00,,2013-11-03 02:21:00,
2013-11-02 20:32:00,54.0,26.0,-100.00,South,188,8.0,10.0,34,0.00,,,0.00,,2013-11-03 02:32:00,
2013-11-02 20:52:00,56.0,26.0,-100.00,SSW,213,10.0,13.0,31,0.00,,,0.00,,2013-11-03 02:52:00,
2013-11-02 21:02:00,56.0,26.0,-100.00,SSW,213,10.0,13.0,31,0.00,,,0.00,,2013-11-03 03:02:00,
2013-11-02 21:22:00,57.0,27.0,-100.00,SW,236,6.0,13.0,31,0.00,,,0.00,,2013-11-03 03:22:00,
2013-11-02 21:33:00,57.0,27.0,-100.00,SW,236,6.0,13.0,31,0.00,,,0.00,,2013-11-03 03:33:00,
2013-11-02 21:54:00,54.0,35.0,-100.00,West,265,11.0,24.0,49,0.00,,,0.00,,2013-11-03 03:54:00,
2013-11-02 22:02:00,-999.0,-99.9,-100.00,West,265,11.0,24.0,-999,-99.99,,,-99.99,,2013-11-03 04:02:00,
2013-11-02 22:52:00,47.0,37.0,-100.00,West,265,15.0,27.0,70,0.00,,,0.00,,2013-11-03 04:52:00,
2013-11-02 23:03:00,47.0,37.0,-100.00,West,265,15.0,27.0,70,0.00,,,0.00,,2013-11-03 05:03:00,
2013-11-02 23:23:00,45.0,35.0,-100.00,West,268,12.0,23.0,66,0.00,,,0.00,,2013-11-03 05:23:00,
2013-11-02 23:34:00,45.0,35.0,-100.00,West,268,12.0,23.0,66,0.00,,,0.00,,2013-11-03 05:34:00,
2013-11-02 23:53:00,44.0,33.0,-100.00,West,272,13.0,21.0,64,0.00,,,0.00,,2013-11-03 05:53:00,